Terminal Aerodrome Forecast
Issued by NWS Wilmington, OH

Current Version | Previous Version | Graphics & Text | Print | Product List | Glossary On
Versions: 1 2 3 4 5 6 7 8 9 10 11 12 13 14
000
FTUS41 KILN 162300
TAFILN
TAF
KILN 162320Z 1700/1724 11012KT P6SM SCT250
     FM170800 14008KT P6SM BKN250
     FM171500 18010KT P6SM BKN250=

USA.gov is the U.S. government's official web portal to all federal, state and local government web resources and services.